Time;durP1;ratioP1;P1;durP2;ratioP2;P2;SDS_P1;SDS_P2;PMS_P1;PMS_P2;Temp;Humidity;BMP_temperature;BMP_pressure;BME280_temperature;BME280_humidity;BME280_pressure;Samples;Min_cycle;Max_cycle;Signal;HPM_P1;HPM_P2
2022/06/12 00:00:45;;;;;;;8.25;7.45;;;;;;;;;;5010333;28;20033;-73
2022/06/12 00:03:14;;;;;;;12.30;8.32;;;;;;;;;;5011672;28;20489;-75
2022/06/12 00:05:42;;;;;;;8.73;8.00;;;;;;;;;;5007139;28;20113;-74
2022/06/12 00:08:08;;;;;;;8.73;8.02;;;;;;;;;;5005587;28;20034;-74
2022/06/12 00:10:37;;;;;;;9.25;8.40;;;;;;;;;;5013401;28;20048;-74
2022/06/12 00:13:04;;;;;;;10.05;8.60;;;;;;;;;;5006423;28;20037;-73
2022/06/12 00:15:30;;;;;;;9.68;8.75;;;;;;;;;;5007568;28;20038;-74
2022/06/12 00:17:57;;;;;;;10.18;9.18;;;;;;;;;;5009503;28;20558;-75
2022/06/12 00:20:23;;;;;;;12.85;8.85;;;;;;;;;;5015129;28;20076;-75
2022/06/12 00:22:50;;;;;;;9.77;8.90;;;;;;;;;;5007572;28;20045;-74
2022/06/12 00:25:18;;;;;;;11.18;8.95;;;;;;;;;;5005210;28;20449;-75
2022/06/12 00:27:45;;;;;;;9.65;8.75;;;;;;;;;;5014489;28;20107;-75
2022/06/12 00:30:14;;;;;;;9.70;8.73;;;;;;;;;;5007516;28;20061;-75
2022/06/12 00:32:40;;;;;;;;;;;;;;;;;;5007784;28;20054;-74
2022/06/12 00:35:07;;;;;;;8.85;8.05;;;;;;;;;;5005916;28;19917;-75
2022/06/12 00:37:35;;;;;;;8.82;7.85;;;;;;;;;;5015198;28;20065;-76
2022/06/12 00:40:03;;;;;;;9.82;8.85;;;;;;;;;;5006337;28;20064;-75
2022/06/12 00:42:36;;;;;;;9.65;8.85;;;;;;;;;;5007220;28;20065;-74
2022/06/12 00:45:30;;;;;;;10.10;9.10;;;;;;;;;;5010531;28;20034;-74
2022/06/12 00:47:57;;;;;;;9.00;8.20;;;;;;;;;;5011225;28;20048;-73
2022/06/12 00:50:24;;;;;;;10.82;9.20;;;;;;;;;;5007718;28;20061;-74
2022/06/12 00:52:52;;;;;;;10.35;9.38;;;;;;;;;;5009722;28;20049;-73
2022/06/12 00:55:31;;;;;;;9.95;8.90;;;;;;;;;;5011987;28;20034;-74
2022/06/12 00:58:08;;;;;;;;;;;;;;;;;;5011600;28;20040;-75
2022/06/12 01:00:34;;;;;;;10.38;8.77;;;;;;;;;;5009090;28;20000;-74
2022/06/12 01:03:00;;;;;;;11.15;8.93;;;;;;;;;;5017287;28;20038;-75
2022/06/12 01:08:13;;;;;;;10.13;9.23;;;;;;;;;;5009727;28;20056;-74
2022/06/12 01:10:41;;;;;;;10.13;8.90;;;;;;;;;;5014241;28;20087;-73
2022/06/12 01:13:18;;;;;;;9.80;8.90;;;;;;;;;;5016040;28;20034;-74
2022/06/12 01:15:50;;;;;;;11.60;9.20;;;;;;;;;;5015602;28;20436;-74
2022/06/12 01:18:20;;;;;;;9.98;9.18;;;;;;;;;;5011782;28;20038;-74
2022/06/12 01:21:03;;;;;;;12.18;9.50;;;;;;;;;;5009087;28;20030;-75
2022/06/12 01:24:04;;;;;;;9.77;8.95;;;;;;;;;;5008853;28;20034;-73
2022/06/12 01:26:49;;;;;;;10.57;9.57;;;;;;;;;;5015038;28;20073;-74
2022/06/12 01:29:15;;;;;;;12.13;8.70;;;;;;;;;;5010946;28;20060;-73
2022/06/12 01:31:56;;;;;;;9.57;8.68;;;;;;;;;;5010869;28;20116;-74
2022/06/12 01:34:26;;;;;;;10.15;9.20;;;;;;;;;;5011791;28;20041;-73
2022/06/12 01:37:02;;;;;;;12.52;11.20;;;;;;;;;;5017820;28;20026;-74
2022/06/12 01:39:49;;;;;;;13.32;10.75;;;;;;;;;;5010837;28;20034;-74
2022/06/12 01:42:31;;;;;;;11.98;10.73;;;;;;;;;;5015340;28;20140;-75
2022/06/12 01:45:27;;;;;;;11.95;10.75;;;;;;;;;;5013803;28;20033;-74
2022/06/12 01:48:12;;;;;;;11.68;10.57;;;;;;;;;;5009997;28;20038;-74
2022/06/12 01:51:07;;;;;;;12.10;10.90;;;;;;;;;;5019093;28;20405;-75
2022/06/12 01:53:50;;;;;;;12.13;10.70;;;;;;;;;;4999856;28;20401;-74
2022/06/12 01:56:19;;;;;;;11.23;10.20;;;;;;;;;;5010215;28;20397;-74
2022/06/12 01:59:02;;;;;;;11.98;10.45;;;;;;;;;;5010705;28;20045;-73
2022/06/12 02:02:10;;;;;;;14.95;10.40;;;;;;;;;;5013419;28;20398;-74
2022/06/12 02:04:43;;;;;;;10.27;9.27;;;;;;;;;;4946505;28;20046;-75
2022/06/12 02:07:21;;;;;;;10.10;9.02;;;;;;;;;;4950379;28;20510;-74
2022/06/12 02:09:55;;;;;;;12.32;9.82;;;;;;;;;;4955916;28;20126;-75
2022/06/12 02:15:30;;;;;;;10.30;9.32;;;;;;;;;;4947027;28;20049;-75
2022/06/12 02:18:06;;;;;;;10.30;9.35;;;;;;;;;;4958163;28;20046;-74
2022/06/12 02:20:37;;;;;;;13.27;10.63;;;;;;;;;;4938218;28;20162;-74
2022/06/12 02:23:08;;;;;;;11.10;9.95;;;;;;;;;;4946489;28;20126;-74
2022/06/12 02:25:38;;;;;;;11.43;10.45;;;;;;;;;;4955816;28;20071;-74
2022/06/12 02:28:12;;;;;;;13.50;10.77;;;;;;;;;;4947572;28;20035;-74
2022/06/12 02:30:43;;;;;;;11.90;9.75;;;;;;;;;;4948811;28;20042;-75
2022/06/12 02:33:16;;;;;;;11.20;10.10;;;;;;;;;;4947409;28;20051;-75
2022/06/12 02:35:53;;;;;;;11.30;10.07;;;;;;;;;;4948593;28;20031;-74
2022/06/12 02:38:29;;;;;;;11.07;9.93;;;;;;;;;;4978542;28;20410;-74
2022/06/12 02:41:07;;;;;;;10.85;9.85;;;;;;;;;;5015022;28;20128;-74
2022/06/12 02:43:34;;;;;;;12.55;10.68;;;;;;;;;;5015222;28;20113;-74
2022/06/12 02:46:12;;;;;;;11.70;10.48;;;;;;;;;;5009289;28;20057;-75
2022/06/12 02:48:38;;;;;;;13.18;11.77;;;;;;;;;;5012353;28;20033;-73
2022/06/12 02:51:41;;;;;;;13.23;10.75;;;;;;;;;;5013469;28;20068;-75
2022/06/12 02:54:37;;;;;;;11.65;10.52;;;;;;;;;;5008622;28;21590;-74
2022/06/12 02:57:30;;;;;;;11.35;10.10;;;;;;;;;;5008227;28;20133;-75
2022/06/12 03:00:08;;;;;;;12.35;10.32;;;;;;;;;;5018509;28;20044;-76
2022/06/12 03:03:07;;;;;;;12.35;10.10;;;;;;;;;;5007791;28;20089;-74
2022/06/12 03:05:36;;;;;;;17.80;10.95;;;;;;;;;;5005706;28;20133;-74
2022/06/12 03:08:06;;;;;;;12.10;10.90;;;;;;;;;;5008086;28;20034;-75
2022/06/12 03:10:39;;;;;;;11.00;9.90;;;;;;;;;;5009190;28;20109;-75
2022/06/12 03:13:09;;;;;;;11.88;10.15;;;;;;;;;;5006862;28;20538;-73
2022/06/12 03:15:46;;;;;;;10.23;9.20;;;;;;;;;;5013447;28;20037;-75
2022/06/12 03:18:17;;;;;;;13.32;10.05;;;;;;;;;;5008642;28;20057;-74
2022/06/12 03:21:06;;;;;;;14.02;10.05;;;;;;;;;;5007147;28;20058;-75
2022/06/12 03:23:53;;;;;;;13.70;9.75;;;;;;;;;;5006167;28;20092;-75
2022/06/12 03:26:46;;;;;;;11.32;10.18;;;;;;;;;;5014354;28;20037;-73
2022/06/12 03:29:23;;;;;;;11.20;9.60;;;;;;;;;;5008992;28;20045;-73
2022/06/12 03:32:09;;;;;;;11.15;10.05;;;;;;;;;;5007593;28;20467;-74
2022/06/12 03:35:11;;;;;;;12.90;11.00;;;;;;;;;;5016946;28;20029;-75
2022/06/12 03:37:59;;;;;;;11.98;10.77;;;;;;;;;;5003925;28;20021;-74
2022/06/12 03:40:34;;;;;;;11.02;10.02;;;;;;;;;;5015930;28;20033;-75
2022/06/12 03:43:33;;;;;;;13.30;10.38;;;;;;;;;;5007087;28;20038;-75
2022/06/12 03:46:30;;;;;;;11.45;10.30;;;;;;;;;;4993744;28;20067;-74
2022/06/12 03:49:07;;;;;;;11.48;10.15;;;;;;;;;;4987371;28;20063;-73
2022/06/12 03:51:58;;;;;;;13.50;10.23;;;;;;;;;;5008344;28;20037;-73
2022/06/12 03:55:08;;;;;;;12.15;10.98;;;;;;;;;;5007583;28;20033;-74
2022/06/12 03:57:53;;;;;;;12.27;11.00;;;;;;;;;;4969028;28;20046;-74
2022/06/12 04:00:34;;;;;;;11.90;10.70;;;;;;;;;;5010391;28;20042;-74
2022/06/12 04:02:59;;;;;;;12.15;10.75;;;;;;;;;;5006670;28;20065;-74
2022/06/12 04:05:31;;;;;;;12.55;10.40;;;;;;;;;;5010517;28;20076;-74
2022/06/12 04:07:59;;;;;;;12.05;10.23;;;;;;;;;;5008316;28;20049;-73
2022/06/12 04:10:29;;;;;;;12.02;9.90;;;;;;;;;;5006134;28;20490;-74
2022/06/12 04:12:55;;;;;;;12.73;9.55;;;;;;;;;;5004259;28;20148;-74
2022/06/12 04:15:28;;;;;;;10.63;9.73;;;;;;;;;;5011891;28;20030;-74
2022/06/12 04:17:55;;;;;;;10.77;9.18;;;;;;;;;;5007767;28;20076;-74
2022/06/12 04:20:32;;;;;;;10.27;9.23;;;;;;;;;;5003853;28;20095;-74
2022/06/12 04:23:06;;;;;;;10.80;9.63;;;;;;;;;;4998854;28;20042;-74
2022/06/12 04:25:34;;;;;;;13.38;9.20;;;;;;;;;;5010405;28;20033;-74
2022/06/12 04:28:02;;;;;;;10.87;8.97;;;;;;;;;;5007932;28;20041;-75
2022/06/12 04:30:32;;;;;;;9.70;8.70;;;;;;;;;;5003754;28;20034;-75
2022/06/12 04:33:22;;;;;;;9.48;8.48;;;;;;;;;;5005735;28;20065;-73
2022/06/12 04:35:52;;;;;;;9.25;8.32;;;;;;;;;;5027302;28;20041;-74
2022/06/12 04:38:18;;;;;;;9.18;8.02;;;;;;;;;;5010755;28;20041;-74
2022/06/12 04:40:44;;;;;;;10.88;8.48;;;;;;;;;;5007112;28;20046;-74
2022/06/12 04:43:09;;;;;;;9.30;8.35;;;;;;;;;;5008617;28;20539;-74
2022/06/12 04:45:38;;;;;;;10.80;8.60;;;;;;;;;;5006517;28;20108;-75
2022/06/12 04:48:05;;;;;;;9.60;8.70;;;;;;;;;;5007510;28;20038;-75
2022/06/12 04:50:31;;;;;;;10.48;8.52;;;;;;;;;;5006826;28;20040;-74
2022/06/12 04:52:56;;;;;;;10.05;8.55;;;;;;;;;;5013285;28;20040;-73
2022/06/12 04:55:22;;;;;;;10.20;9.32;;;;;;;;;;5003912;28;20097;-73
2022/06/12 04:57:48;;;;;;;8.82;8.07;;;;;;;;;;5011608;28;20099;-75
2022/06/12 05:00:20;;;;;;;10.05;8.90;;;;;;;;;;5015212;28;20040;-75
2022/06/12 05:02:46;;;;;;;10.23;8.57;;;;;;;;;;5006569;28;20041;-74
2022/06/12 05:05:11;;;;;;;9.18;8.38;;;;;;;;;;5005211;28;20026;-74
2022/06/12 05:07:37;;;;;;;9.13;8.30;;;;;;;;;;5011920;28;20026;-75
2022/06/12 05:10:03;;;;;;;9.07;8.38;;;;;;;;;;5007422;28;20037;-74
2022/06/12 05:12:28;;;;;;;8.88;8.02;;;;;;;;;;5006999;28;20033;-75
2022/06/12 05:14:54;;;;;;;8.82;8.05;;;;;;;;;;5008988;28;20042;-74
2022/06/12 05:17:22;;;;;;;8.77;7.97;;;;;;;;;;5014647;28;20490;-74
2022/06/12 05:19:49;;;;;;;8.00;7.40;;;;;;;;;;5006159;28;20092;-73
2022/06/12 05:22:16;;;;;;;8.63;7.80;;;;;;;;;;5015019;28;20503;-75
2022/06/12 05:24:45;;;;;;;8.55;7.85;;;;;;;;;;5006666;28;20073;-76
2022/06/12 05:27:16;;;;;;;8.13;7.43;;;;;;;;;;5005110;28;20034;-75
2022/06/12 05:29:42;;;;;;;8.60;7.80;;;;;;;;;;5016371;28;20033;-75
2022/06/12 05:32:12;;;;;;;8.68;7.85;;;;;;;;;;5007129;28;20030;-75
2022/06/12 05:34:38;;;;;;;8.63;7.93;;;;;;;;;;5006874;28;20038;-74
2022/06/12 05:37:04;;;;;;;8.60;7.75;;;;;;;;;;5013467;28;20045;-75
2022/06/12 05:39:30;;;;;;;9.20;8.30;;;;;;;;;;5011865;28;20065;-75
2022/06/12 05:41:56;;;;;;;8.63;7.15;;;;;;;;;;5006240;28;20065;-74
2022/06/12 05:44:22;;;;;;;10.13;7.72;;;;;;;;;;5009379;28;20125;-74
2022/06/12 05:46:47;;;;;;;8.20;7.60;;;;;;;;;;5013958;28;20138;-75
2022/06/12 05:49:14;;;;;;;8.23;7.43;;;;;;;;;;5007739;28;20167;-75
2022/06/12 05:51:40;;;;;;;8.38;7.68;;;;;;;;;;5019407;28;20029;-73
2022/06/12 05:54:07;;;;;;;8.00;7.30;;;;;;;;;;5009403;28;20429;-73
2022/06/12 05:56:33;;;;;;;7.95;7.25;;;;;;;;;;5009909;28;20041;-72
2022/06/12 05:59:00;;;;;;;8.45;6.97;;;;;;;;;;5010014;28;20046;-72
2022/06/12 06:01:26;;;;;;;7.93;7.10;;;;;;;;;;5013263;28;20034;-73
2022/06/12 06:03:52;;;;;;;7.93;7.20;;;;;;;;;;5009787;28;20033;-73
2022/06/12 06:06:29;;;;;;;8.15;7.55;;;;;;;;;;5008877;28;20529;-73
2022/06/12 06:08:56;;;;;;;8.05;7.35;;;;;;;;;;5009206;28;20038;-72
2022/06/12 06:11:22;;;;;;;8.05;7.45;;;;;;;;;;5009763;28;20498;-71
2022/06/12 06:13:48;;;;;;;7.63;6.88;;;;;;;;;;5008982;28;20041;-72
2022/06/12 06:16:14;;;;;;;7.22;6.63;;;;;;;;;;5009598;28;20414;-72
2022/06/12 06:18:40;;;;;;;7.55;6.13;;;;;;;;;;5005803;28;20172;-73
2022/06/12 06:21:11;;;;;;;7.00;6.40;;;;;;;;;;5014238;28;20041;-73
2022/06/12 06:23:38;;;;;;;7.03;6.43;;;;;;;;;;5008753;28;20045;-72
2022/06/12 06:26:04;;;;;;;7.93;7.10;;;;;;;;;;5008897;28;20026;-72
2022/06/12 06:28:30;;;;;;;11.65;6.20;;;;;;;;;;5013151;28;20381;-74
2022/06/12 06:30:56;;;;;;;8.52;6.07;;;;;;;;;;5014736;28;20038;-72
2022/06/12 06:33:22;;;;;;;6.68;6.13;;;;;;;;;;5009395;28;20041;-74
2022/06/12 06:35:49;;;;;;;6.50;5.95;;;;;;;;;;5008800;28;20057;-74
2022/06/12 06:38:14;;;;;;;7.13;6.47;;;;;;;;;;5013341;28;20034;-72
2022/06/12 06:40:40;;;;;;;7.55;6.53;;;;;;;;;;5009104;28;20395;-73
2022/06/12 06:43:07;;;;;;;9.10;5.93;;;;;;;;;;5010589;28;20094;-73
2022/06/12 06:48:19;;;;;;;6.72;5.90;;;;;;;;;;5006609;28;20119;-74
2022/06/12 06:50:44;;;;;;;6.80;6.20;;;;;;;;;;5011049;28;20037;-73
2022/06/12 06:53:11;;;;;;;6.53;5.90;;;;;;;;;;5015969;28;20037;-73
2022/06/12 06:55:37;;;;;;;8.45;5.78;;;;;;;;;;5007531;28;20038;-72
2022/06/12 06:58:10;;;;;;;7.05;5.50;;;;;;;;;;5009854;28;20034;-73
2022/06/12 07:00:38;;;;;;;6.55;5.80;;;;;;;;;;5013963;28;20041;-74
2022/06/12 07:03:05;;;;;;;7.95;5.70;;;;;;;;;;5011107;28;20653;-73
2022/06/12 07:05:32;;;;;;;6.72;6.00;;;;;;;;;;5000517;28;20037;-72
2022/06/12 07:08:00;;;;;;;7.63;6.35;;;;;;;;;;5007817;28;20044;-73
2022/06/12 07:10:27;;;;;;;7.25;6.57;;;;;;;;;;5010530;28;20164;-73
2022/06/12 07:12:53;;;;;;;7.32;6.03;;;;;;;;;;5005404;28;20486;-73
2022/06/12 07:15:19;;;;;;;7.53;6.82;;;;;;;;;;5011288;28;20032;-74
2022/06/12 07:17:45;;;;;;;6.72;6.13;;;;;;;;;;5012095;28;20486;-74
2022/06/12 07:20:13;;;;;;;9.82;7.00;;;;;;;;;;5008309;28;20041;-73
2022/06/12 07:22:39;;;;;;;7.28;6.68;;;;;;;;;;5008280;28;20489;-74
2022/06/12 07:25:05;;;;;;;9.05;6.85;;;;;;;;;;5009581;28;20033;-73
2022/06/12 07:27:31;;;;;;;6.97;6.40;;;;;;;;;;5013759;28;20708;-73
2022/06/12 07:29:57;;;;;;;7.28;6.60;;;;;;;;;;5008370;28;20482;-73
2022/06/12 07:32:22;;;;;;;10.27;6.68;;;;;;;;;;5007998;28;20026;-73
2022/06/12 07:34:48;;;;;;;8.80;6.57;;;;;;;;;;5011401;28;20041;-73
2022/06/12 07:37:14;;;;;;;7.07;6.47;;;;;;;;;;5009754;28;20030;-73
2022/06/12 07:39:40;;;;;;;7.72;7.03;;;;;;;;;;5008507;28;20058;-74
2022/06/12 07:42:06;;;;;;;7.45;6.65;;;;;;;;;;5008199;28;20116;-73
2022/06/12 07:44:34;;;;;;;7.10;6.50;;;;;;;;;;5010651;28;20033;-74
2022/06/12 07:47:02;;;;;;;8.10;6.72;;;;;;;;;;5009334;28;20030;-73
2022/06/12 07:49:30;;;;;;;8.70;6.85;;;;;;;;;;5008277;28;20033;-74
2022/06/12 07:51:57;;;;;;;7.65;6.82;;;;;;;;;;5010906;28;20034;-73
2022/06/12 07:54:24;;;;;;;7.60;6.82;;;;;;;;;;5008562;28;20508;-72
2022/06/12 07:56:50;;;;;;;7.28;6.57;;;;;;;;;;5009822;28;20084;-74
2022/06/12 07:59:16;;;;;;;7.18;6.57;;;;;;;;;;5006716;28;20042;-73
2022/06/12 08:01:42;;;;;;;7.28;6.50;;;;;;;;;;5009407;28;20037;-73
2022/06/12 08:04:09;;;;;;;7.72;6.93;;;;;;;;;;5013321;28;20067;-74
2022/06/12 08:06:35;;;;;;;7.60;6.95;;;;;;;;;;5007117;28;20028;-74
2022/06/12 08:09:05;;;;;;;7.63;6.93;;;;;;;;;;5005724;28;20084;-74
2022/06/12 08:11:33;;;;;;;7.25;6.55;;;;;;;;;;5013312;28;20656;-74
2022/06/12 08:13:59;;;;;;;8.32;6.53;;;;;;;;;;5007560;28;20041;-74
2022/06/12 08:16:25;;;;;;;7.60;6.50;;;;;;;;;;5007759;28;20092;-73
2022/06/12 08:18:51;;;;;;;6.82;6.22;;;;;;;;;;5008898;28;20038;-73
2022/06/12 08:21:17;;;;;;;8.05;6.68;;;;;;;;;;5010908;28;20087;-74
2022/06/12 08:23:47;;;;;;;7.03;6.38;;;;;;;;;;5007726;28;20042;-74
2022/06/12 08:26:33;;;;;;;7.90;6.50;;;;;;;;;;5006615;28;20072;-74
2022/06/12 08:29:09;;;;;;;7.20;6.30;;;;;;;;;;5017293;28;20037;-73
2022/06/12 08:31:42;;;;;;;6.85;6.22;;;;;;;;;;5004530;28;20033;-73
2022/06/12 08:34:12;;;;;;;6.43;5.93;;;;;;;;;;5007556;28;20042;-73
2022/06/12 08:36:39;;;;;;;6.75;6.15;;;;;;;;;;5009516;28;20033;-74
2022/06/12 08:39:06;;;;;;;6.93;6.32;;;;;;;;;;5007165;28;20069;-73
2022/06/12 08:42:07;;;;;;;8.40;6.40;;;;;;;;;;5007032;28;20049;-73
2022/06/12 08:44:52;;;;;;;6.75;6.15;;;;;;;;;;4998806;28;20049;-73
2022/06/12 08:47:28;;;;;;;6.65;6.10;;;;;;;;;;5006552;28;20866;-73
2022/06/12 08:50:02;;;;;;;6.07;5.57;;;;;;;;;;5007468;28;20048;-74
2022/06/12 08:52:42;;;;;;;6.45;5.88;;;;;;;;;;5009751;28;20029;-73
2022/06/12 08:55:20;;;;;;;7.03;5.60;;;;;;;;;;5012334;28;20497;-73
2022/06/12 08:57:55;;;;;;;8.50;6.20;;;;;;;;;;5006053;28;20050;-74
2022/06/12 09:00:24;;;;;;;6.00;5.47;;;;;;;;;;5005565;28;20061;-73
2022/06/12 09:02:50;;;;;;;5.88;5.38;;;;;;;;;;5006855;28;20048;-73
2022/06/12 09:05:21;;;;;;;6.28;5.88;;;;;;;;;;5008917;28;20309;-73
2022/06/12 09:08:08;;;;;;;7.03;6.03;;;;;;;;;;5007401;28;20038;-73
2022/06/12 09:10:42;;;;;;;6.07;5.57;;;;;;;;;;5008825;28;20669;-73
2022/06/12 09:13:33;;;;;;;6.50;5.97;;;;;;;;;;5007711;28;20038;-73
2022/06/12 09:16:04;;;;;;;6.90;5.93;;;;;;;;;;5008517;28;20620;-73
2022/06/12 09:18:30;;;;;;;6.43;5.80;;;;;;;;;;5014674;28;20052;-73
2022/06/12 09:21:29;;;;;;;6.43;5.93;;;;;;;;;;5015096;28;20038;-73
2022/06/12 09:24:03;;;;;;;6.70;5.88;;;;;;;;;;5009930;28;20678;-73
2022/06/12 09:26:33;;;;;;;6.15;5.55;;;;;;;;;;5010090;28;20490;-73
2022/06/12 09:29:41;;;;;;;6.43;5.82;;;;;;;;;;5014218;28;20276;-73
2022/06/12 09:32:29;;;;;;;5.97;5.47;;;;;;;;;;4987903;28;20077;-73
2022/06/12 09:35:07;;;;;;;6.70;5.50;;;;;;;;;;5007792;28;20111;-73
2022/06/12 09:40:49;;;;;;;6.47;5.70;;;;;;;;;;5008153;28;20125;-73
2022/06/12 09:43:45;;;;;;;6.70;5.85;;;;;;;;;;5009021;28;20041;-73
2022/06/12 09:46:58;;;;;;;5.88;5.38;;;;;;;;;;5009757;28;20065;-73
2022/06/12 09:50:08;;;;;;;6.13;5.63;;;;;;;;;;4951242;28;20081;-73
2022/06/12 09:52:52;;;;;;;6.38;5.78;;;;;;;;;;4928557;29;20044;-73
2022/06/12 09:55:37;;;;;;;6.10;5.50;;;;;;;;;;4932089;29;20106;-73
2022/06/12 09:58:22;;;;;;;7.97;5.82;;;;;;;;;;4930912;29;20135;-73
2022/06/12 10:00:57;;;;;;;6.50;5.82;;;;;;;;;;4929433;29;20128;-73
2022/06/12 10:03:31;;;;;;;6.63;6.03;;;;;;;;;;4936186;29;20035;-73
2022/06/12 10:06:06;;;;;;;7.22;6.18;;;;;;;;;;4927069;29;20048;-73
2022/06/12 10:08:51;;;;;;;6.20;5.70;;;;;;;;;;4929919;29;20057;-73
2022/06/12 10:11:33;;;;;;;6.30;5.72;;;;;;;;;;4935623;28;20499;-72
2022/06/12 10:14:11;;;;;;;6.47;5.80;;;;;;;;;;4931231;29;20130;-73
2022/06/12 10:16:43;;;;;;;6.40;5.75;;;;;;;;;;4924295;29;20075;-73
2022/06/12 10:19:27;;;;;;;6.10;5.70;;;;;;;;;;4927863;29;20054;-73
2022/06/12 10:21:58;;;;;;;5.97;5.47;;;;;;;;;;4930223;29;20047;-73
2022/06/12 10:24:24;;;;;;;6.93;5.43;;;;;;;;;;4929274;28;20119;-73
2022/06/12 10:26:59;;;;;;;7.40;5.38;;;;;;;;;;4995032;28;20129;-73
2022/06/12 10:29:27;;;;;;;5.75;5.22;;;;;;;;;;5013925;28;20030;-73
2022/06/12 10:32:01;;;;;;;5.90;5.50;;;;;;;;;;5009695;28;20117;-73
2022/06/12 10:34:32;;;;;;;7.72;5.50;;;;;;;;;;5009095;28;20034;-73
2022/06/12 10:37:27;;;;;;;8.00;5.63;;;;;;;;;;5012007;28;20025;-73
2022/06/12 10:40:23;;;;;;;6.55;5.55;;;;;;;;;;5012543;28;20572;-73
2022/06/12 10:43:04;;;;;;;5.57;5.10;;;;;;;;;;5006773;28;20180;-73
2022/06/12 10:45:39;;;;;;;5.80;5.30;;;;;;;;;;5011812;28;20107;-73
2022/06/12 10:48:26;;;;;;;6.00;5.47;;;;;;;;;;5009853;28;20038;-73
2022/06/12 10:50:58;;;;;;;5.97;5.40;;;;;;;;;;5007995;28;20042;-73
2022/06/12 10:53:26;;;;;;;5.50;5.10;;;;;;;;;;5011802;28;20057;-73
2022/06/12 10:56:04;;;;;;;5.70;5.20;;;;;;;;;;5013977;28;20041;-74
2022/06/12 10:58:51;;;;;;;7.70;5.03;;;;;;;;;;5006990;28;20640;-74
2022/06/12 11:01:28;;;;;;;6.88;5.03;;;;;;;;;;5010133;28;20025;-73
2022/06/12 11:04:21;;;;;;;6.13;5.28;;;;;;;;;;5014048;28;20038;-73
2022/06/12 11:07:07;;;;;;;5.32;4.90;;;;;;;;;;5008246;28;20045;-73
2022/06/12 11:09:50;;;;;;;5.10;4.60;;;;;;;;;;5010966;28;20045;-73
2022/06/12 11:12:37;;;;;;;5.05;4.53;;;;;;;;;;5014523;28;20038;-73
2022/06/12 11:15:21;;;;;;;5.00;4.60;;;;;;;;;;5007992;28;20058;-73
2022/06/12 11:18:40;;;;;;;5.93;4.72;;;;;;;;;;5006775;28;20029;-73
2022/06/12 11:21:22;;;;;;;5.78;5.22;;;;;;;;;;4930264;29;20058;-73
2022/06/12 11:24:03;;;;;;;5.88;5.22;;;;;;;;;;4927242;29;20509;-73
2022/06/12 11:26:41;;;;;;;7.55;5.80;;;;;;;;;;4926367;29;20748;-73
2022/06/12 11:29:18;;;;;;;6.32;5.35;;;;;;;;;;4932511;29;20090;-73
2022/06/12 11:31:50;;;;;;;6.20;5.60;;;;;;;;;;4926804;29;20059;-73
2022/06/12 11:34:38;;;;;;;5.53;5.00;;;;;;;;;;4928964;29;20047;-73
2022/06/12 11:37:04;;;;;;;5.30;4.80;;;;;;;;;;4928229;29;20044;-73
2022/06/12 11:39:57;;;;;;;5.70;5.20;;;;;;;;;;4937101;29;20047;-73
2022/06/12 11:42:43;;;;;;;7.32;5.30;;;;;;;;;;4928250;29;20067;-73
2022/06/12 11:45:18;;;;;;;6.28;5.00;;;;;;;;;;4929257;29;20055;-73
2022/06/12 11:48:12;;;;;;;5.43;5.03;;;;;;;;;;4937306;29;20114;-73
2022/06/12 11:51:15;;;;;;;5.70;5.20;;;;;;;;;;4928839;29;20048;-74
2022/06/12 11:53:52;;;;;;;5.63;5.22;;;;;;;;;;4936817;29;20119;-73
2022/06/12 11:56:32;;;;;;;5.30;4.90;;;;;;;;;;4956353;28;20046;-73
2022/06/12 11:59:29;;;;;;;6.10;5.60;;;;;;;;;;5006764;28;20064;-73
2022/06/12 12:02:03;;;;;;;6.30;5.47;;;;;;;;;;5015247;28;20049;-73
2022/06/12 12:04:48;;;;;;;5.35;4.95;;;;;;;;;;5009210;28;20485;-73
2022/06/12 12:07:42;;;;;;;5.85;5.25;;;;;;;;;;5008108;28;20619;-73
2022/06/12 12:10:38;;;;;;;5.72;5.32;;;;;;;;;;5012183;28;20044;-72
2022/06/12 12:13:11;;;;;;;7.63;5.32;;;;;;;;;;4986322;28;20113;-73
2022/06/12 12:15:50;;;;;;;5.68;5.28;;;;;;;;;;5007139;28;20516;-73
2022/06/12 12:18:37;;;;;;;7.00;5.50;;;;;;;;;;5011512;28;20756;-72
2022/06/12 12:21:06;;;;;;;6.43;5.40;;;;;;;;;;5010985;28;20065;-73
2022/06/12 12:23:38;;;;;;;6.80;5.68;;;;;;;;;;5009081;28;20374;-73
2022/06/12 12:26:33;;;;;;;5.68;5.25;;;;;;;;;;5010491;28;20103;-73
2022/06/12 12:29:05;;;;;;;5.85;5.35;;;;;;;;;;5009416;28;20166;-73
2022/06/12 12:31:33;;;;;;;6.55;5.60;;;;;;;;;;5007809;28;20033;-73
2022/06/12 12:34:04;;;;;;;6.60;5.50;;;;;;;;;;5004799;28;20041;-73
2022/06/12 12:42:42;;;;;;;5.82;5.32;;;;;;;;;;5004770;28;20041;-72
2022/06/12 12:45:22;;;;;;;6.45;5.35;;;;;;;;;;4946159;28;20050;-72
2022/06/12 12:48:03;;;;;;;5.80;5.20;;;;;;;;;;4953417;28;20047;-72
2022/06/12 12:50:40;;;;;;;5.95;5.38;;;;;;;;;;4950978;28;20124;-72
2022/06/12 12:53:06;;;;;;;5.93;5.40;;;;;;;;;;4948305;28;20039;-72
2022/06/12 12:55:38;;;;;;;6.20;5.30;;;;;;;;;;4947288;28;20069;-72
2022/06/12 12:58:21;;;;;;;5.70;5.20;;;;;;;;;;4948045;28;20043;-72
2022/06/12 13:00:48;;;;;;;5.82;5.30;;;;;;;;;;4956081;28;20042;-74
2022/06/12 13:03:35;;;;;;;5.57;5.18;;;;;;;;;;4949435;28;20051;-74
2022/06/12 13:06:27;;;;;;;5.90;5.30;;;;;;;;;;4946556;28;20070;-74
2022/06/12 13:08:53;;;;;;;7.85;5.78;;;;;;;;;;4921484;28;20191;-73
2022/06/12 13:11:21;;;;;;;5.78;5.18;;;;;;;;;;4949049;28;20546;-74
2022/06/12 13:14:04;;;;;;;;;;;;;;;;;;4947805;28;20408;-73
2022/06/12 13:16:42;;;;;;;5.88;5.35;;;;;;;;;;4951137;28;20641;-74
2022/06/12 13:19:33;;;;;;;6.03;5.43;;;;;;;;;;4952149;28;20380;-73
2022/06/12 13:21:59;;;;;;;6.10;5.60;;;;;;;;;;4990722;28;20300;-73
2022/06/12 13:24:45;;;;;;;7.43;5.20;;;;;;;;;;5010658;28;20026;-73
2022/06/12 13:27:17;;;;;;;5.72;5.32;;;;;;;;;;5017512;28;20069;-72
2022/06/12 13:29:44;;;;;;;5.22;4.80;;;;;;;;;;5010917;28;20033;-74
2022/06/12 13:32:21;;;;;;;7.90;4.82;;;;;;;;;;5011081;28;20029;-74
2022/06/12 13:34:54;;;;;;;5.80;5.30;;;;;;;;;;5016154;28;20041;-74
2022/06/12 13:37:20;;;;;;;5.40;4.90;;;;;;;;;;5016833;28;20486;-74
2022/06/12 13:39:47;;;;;;;7.47;5.20;;;;;;;;;;5012820;28;20063;-73
2022/06/12 13:42:21;;;;;;;7.15;5.00;;;;;;;;;;5009239;28;20048;-73
2022/06/12 13:44:49;;;;;;;5.53;5.03;;;;;;;;;;5018365;28;20029;-73
2022/06/12 13:47:34;;;;;;;5.70;5.20;;;;;;;;;;5010098;28;20041;-72
2022/06/12 13:50:31;;;;;;;6.28;5.35;;;;;;;;;;5008233;28;20823;-73
2022/06/12 13:53:06;;;;;;;6.03;5.43;;;;;;;;;;5018489;28;20030;-73
2022/06/12 13:55:34;;;;;;;5.72;5.32;;;;;;;;;;5013517;28;20057;-72
2022/06/12 13:58:07;;;;;;;6.15;5.53;;;;;;;;;;5007178;28;20037;-73
2022/06/12 14:00:54;;;;;;;5.90;5.30;;;;;;;;;;5019389;28;20033;-72
2022/06/12 14:03:23;;;;;;;6.78;5.53;;;;;;;;;;5010101;28;20046;-73
2022/06/12 14:06:09;;;;;;;6.32;5.75;;;;;;;;;;5009081;28;20034;-72
2022/06/12 14:08:37;;;;;;;5.65;5.13;;;;;;;;;;5014956;28;20439;-73
2022/06/12 14:11:05;;;;;;;6.65;5.45;;;;;;;;;;5010222;28;20041;-73
2022/06/12 14:13:45;;;;;;;6.63;5.38;;;;;;;;;;5010518;28;20050;-73
2022/06/12 14:16:15;;;;;;;5.82;5.22;;;;;;;;;;5009721;28;20030;-73
2022/06/12 14:18:53;;;;;;;5.75;5.20;;;;;;;;;;5018772;28;20034;-73
2022/06/12 14:21:36;;;;;;;6.32;5.28;;;;;;;;;;5011030;28;20037;-73
2022/06/12 14:24:04;;;;;;;5.55;5.05;;;;;;;;;;5009927;28;20044;-73
2022/06/12 14:26:41;;;;;;;6.85;5.20;;;;;;;;;;5019229;28;20390;-73
2022/06/12 14:29:34;;;;;;;5.60;5.10;;;;;;;;;;5007944;28;20096;-73
2022/06/12 14:32:13;;;;;;;5.85;4.97;;;;;;;;;;5009304;28;20066;-73
2022/06/12 14:34:44;;;;;;;5.78;4.88;;;;;;;;;;5009755;28;20025;-73
2022/06/12 14:37:30;;;;;;;5.90;5.03;;;;;;;;;;5015546;28;20061;-72
2022/06/12 14:39:56;;;;;;;5.25;4.85;;;;;;;;;;5009329;28;20483;-73
2022/06/12 14:42:22;;;;;;;5.72;5.30;;;;;;;;;;5011243;28;20030;-73
2022/06/12 14:44:49;;;;;;;5.82;5.30;;;;;;;;;;5013393;28;20286;-73
2022/06/12 14:47:14;;;;;;;9.05;5.30;;;;;;;;;;5009360;28;20034;-73
2022/06/12 14:49:40;;;;;;;5.50;5.00;;;;;;;;;;5009645;28;20506;-73
2022/06/12 14:52:07;;;;;;;5.95;5.38;;;;;;;;;;5015846;28;20037;-73
2022/06/12 14:54:32;;;;;;;7.53;5.57;;;;;;;;;;5008865;28;20133;-73
2022/06/12 14:56:58;;;;;;;6.03;5.38;;;;;;;;;;5008945;28;20062;-72
2022/06/12 14:59:26;;;;;;;5.53;5.13;;;;;;;;;;5006449;28;20064;-72
2022/06/12 15:01:52;;;;;;;5.50;5.10;;;;;;;;;;5018514;28;20041;-72
2022/06/12 15:04:18;;;;;;;5.55;5.07;;;;;;;;;;5008764;28;20289;-72
2022/06/12 15:06:44;;;;;;;5.85;5.28;;;;;;;;;;5008372;28;20497;-72
2022/06/12 15:09:10;;;;;;;6.43;5.05;;;;;;;;;;5014999;28;20040;-73
2022/06/12 15:11:38;;;;;;;6.78;5.30;;;;;;;;;;5008904;28;20053;-75
2022/06/12 15:14:05;;;;;;;7.57;5.18;;;;;;;;;;5006660;28;20145;-74
2022/06/12 15:16:32;;;;;;;5.70;5.30;;;;;;;;;;5018962;28;20112;-74
2022/06/12 15:18:59;;;;;;;6.18;5.60;;;;;;;;;;5011817;28;20523;-73
2022/06/12 15:21:36;;;;;;;6.45;5.85;;;;;;;;;;5008531;28;20038;-74
2022/06/12 15:24:03;;;;;;;6.57;6.05;;;;;;;;;;5009148;28;20037;-73
2022/06/12 15:31:58;;;;;;;6.63;6.03;;;;;;;;;;5007709;28;20066;-74
2022/06/12 15:34:24;;;;;;;6.45;5.68;;;;;;;;;;5013433;28;20117;-74
2022/06/12 15:36:50;;;;;;;6.57;5.90;;;;;;;;;;5012747;28;20117;-73
2022/06/12 15:39:16;;;;;;;6.05;5.38;;;;;;;;;;5008442;28;20034;-73
2022/06/12 15:41:41;;;;;;;5.47;5.07;;;;;;;;;;5009323;28;20073;-73
2022/06/12 15:44:07;;;;;;;6.32;5.47;;;;;;;;;;5017272;28;20163;-73